首页
METAR-TAF:

METAR-TAF

机场 :

桑德贝, 安大略省, 加拿大

纬度: 48-22N, 经度: 089-19W, 海拔: 199米

METAR: 丢失

时间: 18:30 (22:30 UTC)

预报

该预报发布于26小时和49分钟前的19:41 UTC
预报有效从24日的 20点(UTC)到 25日的 08点(UTC)
风速12节,风向南转西南,有时为22节阵风
能見度: 10公里
少量云层高于4000英尺
多云层高于16000英尺
从 24日的 2100点(UTC)
风速13节,风向南转西南,有时为23节阵风
能見度: 10公里
多云层高于4000英尺
多云层高于16000英尺
短暂存在
从 24日的 21点(UTC)到 24日的 24点(UTC)
能見度: 10公里
小阵雨
从 25日的 0000点(UTC)
风速10节,风向南转南东,有时为20节阵风
能見度: 10公里
少量云层高于5000英尺
散云层高于13000英尺
散云层高于24000英尺
从 25日的 0300点(UTC)
风速6节,风向东南
能見度: 10公里
少量云层高于2000英尺
阴天层高于10000英尺
短暂存在
从 25日的 03点(UTC)到 25日的 05点(UTC)
能見度: 10公里
小阵雨
从 25日的 0500点(UTC)
风速3节,风向多变
能見度: 9.7公里
多云层高于1500英尺
阴天层高于6000英尺
小阵雨, 轻雾
几率 30%
从 25日的 05点(UTC)到 25日的 08点(UTC)
能見度: 3.2公里
多云层高于900英尺
阴天层高于6000英尺, 积雨云.
雷暴, 雨, 轻雾

TAF: CYQT 241941Z 2420/2508 20012G22KT P6SM FEW040 BKN160 FM242100 20013G23KT P6SM BKN040 BKN160 TEMPO 2421/2424 P6SM -SHRA FM250000 15010G20KT P6SM FEW050 SCT130 SCT240 FM250300 14006KT P6SM FEW020 OVC100 TEMPO 2503/2505 P6SM -SHRA FM250500 VRB03KT 6SM -SHRA BR BKN015 OVC060 PROB30 2505/2508 2SM TSRA BR BKN009 OVC060CB RMK NXT FCST BY 250200Z

超过4000个机场的气象观测和天气预报(METAR&TAF报告)。

可查询的气象台以黄色和红色小点在地图上表示。

将鼠标移到小点上方,可查看气象台名称。

然后点击查看天气观测和预报。

如需切换地图:点击带黑十字的绿色按钮放大地图;点击带横线的绿色按钮缩小地图;或者点击绿色箭头查看邻近地区的地图。


METAR-TAF: